sensor_id;sensor_type;location;lat;lon;timestamp;temperature;humidity
32698;DHT22;19087;51.062;3.754;2022-09-03T00:00:48;20.50;99.90
32698;DHT22;19087;51.062;3.754;2022-09-03T00:06:15;20.40;99.90
32698;DHT22;19087;51.062;3.754;2022-09-03T00:09:05;20.40;99.90
32698;DHT22;19087;51.062;3.754;2022-09-03T00:11:57;20.30;99.90
32698;DHT22;19087;51.062;3.754;2022-09-03T00:14:41;20.30;99.90
32698;DHT22;19087;51.062;3.754;2022-09-03T00:17:31;20.20;99.90
32698;DHT22;19087;51.062;3.754;2022-09-03T00:20:21;20.30;99.90
32698;DHT22;19087;51.062;3.754;2022-09-03T00:22:54;20.50;99.90
32698;DHT22;19087;51.062;3.754;2022-09-03T00:25:49;20.50;99.90
32698;DHT22;19087;51.062;3.754;2022-09-03T00:28:21;20.30;99.90
32698;DHT22;19087;51.062;3.754;2022-09-03T00:30:51;20.40;99.90
32698;DHT22;19087;51.062;3.754;2022-09-03T00:33:26;20.40;99.90
32698;DHT22;19087;51.062;3.754;2022-09-03T00:38:28;20.30;99.90
32698;DHT22;19087;51.062;3.754;2022-09-03T00:44:17;20.40;99.90
32698;DHT22;19087;51.062;3.754;2022-09-03T00:49:38;20.40;99.90
32698;DHT22;19087;51.062;3.754;2022-09-03T00:52:46;20.30;99.90
32698;DHT22;19087;51.062;3.754;2022-09-03T00:55:33;20.30;99.90
32698;DHT22;19087;51.062;3.754;2022-09-03T00:58:16;20.20;99.90
32698;DHT22;19087;51.062;3.754;2022-09-03T01:00:47;20.10;99.90
32698;DHT22;19087;51.062;3.754;2022-09-03T01:06:16;19.80;99.90
32698;DHT22;19087;51.062;3.754;2022-09-03T01:16:43;19.80;99.90
32698;DHT22;19087;51.062;3.754;2022-09-03T01:28:41;19.70;99.90
32698;DHT22;19087;51.062;3.754;2022-09-03T01:30:43;19.80;99.90
32698;DHT22;19087;51.062;3.754;2022-09-03T01:33:54;19.90;99.90
32698;DHT22;19087;51.062;3.754;2022-09-03T01:38:50;19.90;99.90
32698;DHT22;19087;51.062;3.754;2022-09-03T02:02:10;19.80;99.90
32698;DHT22;19087;51.062;3.754;2022-09-03T02:05:22;19.70;99.90
32698;DHT22;19087;51.062;3.754;2022-09-03T02:08:00;19.50;99.90
32698;DHT22;19087;51.062;3.754;2022-09-03T02:10:33;19.50;99.90
32698;DHT22;19087;51.062;3.754;2022-09-03T02:13:31;19.50;99.90
32698;DHT22;19087;51.062;3.754;2022-09-03T02:16:05;19.40;99.90
32698;DHT22;19087;51.062;3.754;2022-09-03T02:18:37;19.50;99.90
32698;DHT22;19087;51.062;3.754;2022-09-03T02:21:04;19.50;99.90
32698;DHT22;19087;51.062;3.754;2022-09-03T02:23:30;19.40;99.90
32698;DHT22;19087;51.062;3.754;2022-09-03T02:26:01;19.40;99.90
32698;DHT22;19087;51.062;3.754;2022-09-03T02:28:29;19.50;99.90
32698;DHT22;19087;51.062;3.754;2022-09-03T02:30:56;19.60;99.90
32698;DHT22;19087;51.062;3.754;2022-09-03T02:33:22;19.80;99.90
32698;DHT22;19087;51.062;3.754;2022-09-03T02:35:48;19.90;99.90
32698;DHT22;19087;51.062;3.754;2022-09-03T02:38:17;19.80;99.90
32698;DHT22;19087;51.062;3.754;2022-09-03T02:40:43;19.70;99.90
32698;DHT22;19087;51.062;3.754;2022-09-03T02:43:38;19.70;99.90
32698;DHT22;19087;51.062;3.754;2022-09-03T02:46:12;19.70;99.90
32698;DHT22;19087;51.062;3.754;2022-09-03T02:48:45;19.60;99.90
32698;DHT22;19087;51.062;3.754;2022-09-03T02:51:11;19.50;99.90
32698;DHT22;19087;51.062;3.754;2022-09-03T02:53:38;19.50;99.90
32698;DHT22;19087;51.062;3.754;2022-09-03T02:56:05;19.60;99.90
32698;DHT22;19087;51.062;3.754;2022-09-03T02:58:34;19.70;99.90
32698;DHT22;19087;51.062;3.754;2022-09-03T03:01:01;19.80;99.90
32698;DHT22;19087;51.062;3.754;2022-09-03T03:03:28;20.00;99.90
32698;DHT22;19087;51.062;3.754;2022-09-03T03:05:56;20.00;99.90
32698;DHT22;19087;51.062;3.754;2022-09-03T03:08:26;20.10;99.90
32698;DHT22;19087;51.062;3.754;2022-09-03T03:10:55;19.80;99.90
32698;DHT22;19087;51.062;3.754;2022-09-03T03:13:27;19.60;99.90
32698;DHT22;19087;51.062;3.754;2022-09-03T03:16:01;19.50;99.90
32698;DHT22;19087;51.062;3.754;2022-09-03T03:18:27;19.40;99.90
32698;DHT22;19087;51.062;3.754;2022-09-03T03:20:53;19.50;99.90
32698;DHT22;19087;51.062;3.754;2022-09-03T03:23:20;19.30;99.90
32698;DHT22;19087;51.062;3.754;2022-09-03T03:25:46;19.30;99.90
32698;DHT22;19087;51.062;3.754;2022-09-03T03:28:12;19.30;99.90
32698;DHT22;19087;51.062;3.754;2022-09-03T03:30:39;19.20;99.90
32698;DHT22;19087;51.062;3.754;2022-09-03T03:33:08;19.20;99.90
32698;DHT22;19087;51.062;3.754;2022-09-03T03:35:35;19.30;99.90
32698;DHT22;19087;51.062;3.754;2022-09-03T03:38:00;19.50;99.90
32698;DHT22;19087;51.062;3.754;2022-09-03T03:40:27;19.50;99.90
32698;DHT22;19087;51.062;3.754;2022-09-03T03:42:53;19.50;99.90
32698;DHT22;19087;51.062;3.754;2022-09-03T03:45:19;19.50;99.90
32698;DHT22;19087;51.062;3.754;2022-09-03T03:47:45;19.30;99.90
32698;DHT22;19087;51.062;3.754;2022-09-03T03:50:11;19.20;99.90
32698;DHT22;19087;51.062;3.754;2022-09-03T03:52:38;19.10;99.90
32698;DHT22;19087;51.062;3.754;2022-09-03T03:55:04;19.00;99.90
32698;DHT22;19087;51.062;3.754;2022-09-03T03:57:31;18.90;99.90
32698;DHT22;19087;51.062;3.754;2022-09-03T03:59:57;18.80;99.90
32698;DHT22;19087;51.062;3.754;2022-09-03T04:02:22;18.70;99.90
32698;DHT22;19087;51.062;3.754;2022-09-03T04:04:48;18.70;99.90
32698;DHT22;19087;51.062;3.754;2022-09-03T04:07:14;18.70;99.90
32698;DHT22;19087;51.062;3.754;2022-09-03T04:09:39;18.80;99.90
32698;DHT22;19087;51.062;3.754;2022-09-03T04:12:05;18.80;99.90
32698;DHT22;19087;51.062;3.754;2022-09-03T04:14:33;18.70;99.90
32698;DHT22;19087;51.062;3.754;2022-09-03T04:17:00;18.70;99.90
32698;DHT22;19087;51.062;3.754;2022-09-03T04:19:25;18.80;99.90
32698;DHT22;19087;51.062;3.754;2022-09-03T04:21:55;18.90;99.90
32698;DHT22;19087;51.062;3.754;2022-09-03T04:24:21;18.90;99.90
32698;DHT22;19087;51.062;3.754;2022-09-03T04:26:47;18.90;99.90
32698;DHT22;19087;51.062;3.754;2022-09-03T04:29:15;18.90;99.90
32698;DHT22;19087;51.062;3.754;2022-09-03T04:31:41;19.00;99.90
32698;DHT22;19087;51.062;3.754;2022-09-03T04:34:29;19.30;99.90
32698;DHT22;19087;51.062;3.754;2022-09-03T04:36:55;19.60;99.90
32698;DHT22;19087;51.062;3.754;2022-09-03T04:39:23;19.80;99.90
32698;DHT22;19087;51.062;3.754;2022-09-03T04:41:49;19.90;99.90
32698;DHT22;19087;51.062;3.754;2022-09-03T04:44:14;20.00;99.90
32698;DHT22;19087;51.062;3.754;2022-09-03T04:46:41;20.00;99.90
32698;DHT22;19087;51.062;3.754;2022-09-03T04:49:06;19.90;99.90
32698;DHT22;19087;51.062;3.754;2022-09-03T04:51:34;19.60;99.90
32698;DHT22;19087;51.062;3.754;2022-09-03T04:54:02;19.40;99.90
32698;DHT22;19087;51.062;3.754;2022-09-03T04:56:30;19.30;99.90
32698;DHT22;19087;51.062;3.754;2022-09-03T04:59:07;19.30;99.90
32698;DHT22;19087;51.062;3.754;2022-09-03T05:01:36;19.40;99.90
32698;DHT22;19087;51.062;3.754;2022-09-03T05:04:02;19.40;99.90
32698;DHT22;19087;51.062;3.754;2022-09-03T05:06:30;19.60;99.90
32698;DHT22;19087;51.062;3.754;2022-09-03T05:08:56;19.50;99.90
32698;DHT22;19087;51.062;3.754;2022-09-03T05:11:23;19.40;99.90
32698;DHT22;19087;51.062;3.754;2022-09-03T05:13:50;19.30;99.90
32698;DHT22;19087;51.062;3.754;2022-09-03T05:16:17;19.30;99.90
32698;DHT22;19087;51.062;3.754;2022-09-03T05:18:43;19.10;99.90
32698;DHT22;19087;51.062;3.754;2022-09-03T05:21:12;19.10;99.90
32698;DHT22;19087;51.062;3.754;2022-09-03T05:23:40;19.10;99.90
32698;DHT22;19087;51.062;3.754;2022-09-03T05:26:13;19.10;99.90
32698;DHT22;19087;51.062;3.754;2022-09-03T05:28:41;19.10;99.90
32698;DHT22;19087;51.062;3.754;2022-09-03T05:31:13;19.10;99.90
32698;DHT22;19087;51.062;3.754;2022-09-03T05:33:44;19.20;99.90
32698;DHT22;19087;51.062;3.754;2022-09-03T05:36:13;19.20;99.90
32698;DHT22;19087;51.062;3.754;2022-09-03T05:38:39;19.20;99.90
32698;DHT22;19087;51.062;3.754;2022-09-03T05:41:07;19.40;99.90
32698;DHT22;19087;51.062;3.754;2022-09-03T05:43:33;19.50;99.90
32698;DHT22;19087;51.062;3.754;2022-09-03T05:46:01;19.40;99.90
32698;DHT22;19087;51.062;3.754;2022-09-03T05:48:31;19.40;99.90
32698;DHT22;19087;51.062;3.754;2022-09-03T05:51:05;19.50;99.90
32698;DHT22;19087;51.062;3.754;2022-09-03T05:53:33;19.60;99.90
32698;DHT22;19087;51.062;3.754;2022-09-03T05:56:01;19.70;99.90
32698;DHT22;19087;51.062;3.754;2022-09-03T05:58:34;19.70;99.90
32698;DHT22;19087;51.062;3.754;2022-09-03T06:01:22;19.80;99.90
32698;DHT22;19087;51.062;3.754;2022-09-03T06:04:06;19.80;99.90
32698;DHT22;19087;51.062;3.754;2022-09-03T06:06:35;19.80;99.90
32698;DHT22;19087;51.062;3.754;2022-09-03T06:09:08;19.80;99.90
32698;DHT22;19087;51.062;3.754;2022-09-03T06:11:36;19.80;99.90
32698;DHT22;19087;51.062;3.754;2022-09-03T06:14:04;19.90;99.90
32698;DHT22;19087;51.062;3.754;2022-09-03T06:16:31;19.90;99.90
32698;DHT22;19087;51.062;3.754;2022-09-03T06:19:00;20.00;99.90
32698;DHT22;19087;51.062;3.754;2022-09-03T06:21:27;20.00;99.90
32698;DHT22;19087;51.062;3.754;2022-09-03T06:23:54;20.10;99.90
32698;DHT22;19087;51.062;3.754;2022-09-03T06:26:21;20.10;99.90
32698;DHT22;19087;51.062;3.754;2022-09-03T06:28:48;20.20;99.90
32698;DHT22;19087;51.062;3.754;2022-09-03T06:31:18;20.20;99.90
32698;DHT22;19087;51.062;3.754;2022-09-03T06:33:45;20.40;99.90
32698;DHT22;19087;51.062;3.754;2022-09-03T06:36:15;20.50;99.90
32698;DHT22;19087;51.062;3.754;2022-09-03T06:38:43;20.60;99.90
32698;DHT22;19087;51.062;3.754;2022-09-03T06:41:12;20.70;99.90
32698;DHT22;19087;51.062;3.754;2022-09-03T06:43:39;20.70;99.90
32698;DHT22;19087;51.062;3.754;2022-09-03T06:46:10;20.60;99.90
32698;DHT22;19087;51.062;3.754;2022-09-03T06:48:38;20.60;99.90
32698;DHT22;19087;51.062;3.754;2022-09-03T06:51:16;20.70;99.90
32698;DHT22;19087;51.062;3.754;2022-09-03T06:53:47;20.70;99.90
32698;DHT22;19087;51.062;3.754;2022-09-03T06:56:21;20.80;99.90
32698;DHT22;19087;51.062;3.754;2022-09-03T06:58:52;20.80;99.90
32698;DHT22;19087;51.062;3.754;2022-09-03T07:01:20;20.90;99.90
32698;DHT22;19087;51.062;3.754;2022-09-03T07:03:50;21.00;99.90
32698;DHT22;19087;51.062;3.754;2022-09-03T07:06:19;21.20;99.90
32698;DHT22;19087;51.062;3.754;2022-09-03T07:08:46;21.30;99.90
32698;DHT22;19087;51.062;3.754;2022-09-03T07:11:15;21.30;99.90
32698;DHT22;19087;51.062;3.754;2022-09-03T07:13:45;21.30;99.90
32698;DHT22;19087;51.062;3.754;2022-09-03T07:16:16;21.30;99.90
32698;DHT22;19087;51.062;3.754;2022-09-03T07:18:44;21.30;99.90
32698;DHT22;19087;51.062;3.754;2022-09-03T07:21:16;21.40;99.90
32698;DHT22;19087;51.062;3.754;2022-09-03T07:23:43;21.50;99.90
32698;DHT22;19087;51.062;3.754;2022-09-03T07:26:12;21.30;99.90
32698;DHT22;19087;51.062;3.754;2022-09-03T07:28:39;21.30;99.90
32698;DHT22;19087;51.062;3.754;2022-09-03T07:31:10;21.40;99.90
32698;DHT22;19087;51.062;3.754;2022-09-03T07:33:38;21.50;99.90
32698;DHT22;19087;51.062;3.754;2022-09-03T07:36:11;21.70;99.90
32698;DHT22;19087;51.062;3.754;2022-09-03T07:38:40;21.90;99.90
32698;DHT22;19087;51.062;3.754;2022-09-03T07:41:08;22.00;99.90
32698;DHT22;19087;51.062;3.754;2022-09-03T07:43:36;21.90;99.90
32698;DHT22;19087;51.062;3.754;2022-09-03T07:46:05;21.80;99.90
32698;DHT22;19087;51.062;3.754;2022-09-03T07:48:34;21.70;99.90
32698;DHT22;19087;51.062;3.754;2022-09-03T07:51:01;21.80;99.90
32698;DHT22;19087;51.062;3.754;2022-09-03T07:53:27;21.90;99.90
32698;DHT22;19087;51.062;3.754;2022-09-03T07:56:15;22.10;99.90
32698;DHT22;19087;51.062;3.754;2022-09-03T07:58:42;22.20;99.90
32698;DHT22;19087;51.062;3.754;2022-09-03T08:01:16;22.20;99.90
32698;DHT22;19087;51.062;3.754;2022-09-03T08:03:47;22.30;99.90
32698;DHT22;19087;51.062;3.754;2022-09-03T08:06:18;22.20;99.90
32698;DHT22;19087;51.062;3.754;2022-09-03T08:08:46;22.40;99.90
32698;DHT22;19087;51.062;3.754;2022-09-03T08:11:17;22.30;99.90
32698;DHT22;19087;51.062;3.754;2022-09-03T08:13:56;22.40;99.90
32698;DHT22;19087;51.062;3.754;2022-09-03T08:16:29;22.30;99.90
32698;DHT22;19087;51.062;3.754;2022-09-03T08:18:55;22.50;99.90
32698;DHT22;19087;51.062;3.754;2022-09-03T08:21:21;22.90;99.90
32698;DHT22;19087;51.062;3.754;2022-09-03T08:23:52;22.80;99.90
32698;DHT22;19087;51.062;3.754;2022-09-03T08:26:20;22.90;99.90
32698;DHT22;19087;51.062;3.754;2022-09-03T08:28:46;23.10;99.90
32698;DHT22;19087;51.062;3.754;2022-09-03T08:31:19;23.10;99.90
32698;DHT22;19087;51.062;3.754;2022-09-03T08:33:48;23.60;99.90
32698;DHT22;19087;51.062;3.754;2022-09-03T08:36:28;23.80;99.90
32698;DHT22;19087;51.062;3.754;2022-09-03T08:38:55;24.10;99.90
32698;DHT22;19087;51.062;3.754;2022-09-03T08:48:00;24.40;99.90
32698;DHT22;19087;51.062;3.754;2022-09-03T08:50:30;24.30;99.90
32698;DHT22;19087;51.062;3.754;2022-09-03T08:53:16;23.80;99.90
32698;DHT22;19087;51.062;3.754;2022-09-03T08:55:59;24.00;99.90
32698;DHT22;19087;51.062;3.754;2022-09-03T08:58:36;24.10;99.90
32698;DHT22;19087;51.062;3.754;2022-09-03T09:01:13;24.10;99.90
32698;DHT22;19087;51.062;3.754;2022-09-03T09:03:54;24.20;99.90
32698;DHT22;19087;51.062;3.754;2022-09-03T09:06:29;24.70;99.90
32698;DHT22;19087;51.062;3.754;2022-09-03T09:11:55;25.60;99.90
32698;DHT22;19087;51.062;3.754;2022-09-03T09:14:38;26.00;99.90
32698;DHT22;19087;51.062;3.754;2022-09-03T09:20:14;27.00;99.90
32698;DHT22;19087;51.062;3.754;2022-09-03T09:23:12;26.80;99.60
32698;DHT22;19087;51.062;3.754;2022-09-03T09:25:48;26.80;99.40
32698;DHT22;19087;51.062;3.754;2022-09-03T09:28:21;26.90;98.90
32698;DHT22;19087;51.062;3.754;2022-09-03T09:30:48;26.70;98.80
32698;DHT22;19087;51.062;3.754;2022-09-03T09:33:18;26.70;98.60
32698;DHT22;19087;51.062;3.754;2022-09-03T09:35:45;26.00;99.40
32698;DHT22;19087;51.062;3.754;2022-09-03T09:38:12;26.40;99.40
32698;DHT22;19087;51.062;3.754;2022-09-03T09:40:42;26.50;98.90
32698;DHT22;19087;51.062;3.754;2022-09-03T09:45:44;26.80;98.40
32698;DHT22;19087;51.062;3.754;2022-09-03T09:48:25;26.70;98.30
32698;DHT22;19087;51.062;3.754;2022-09-03T09:51:23;26.50;98.40
32698;DHT22;19087;51.062;3.754;2022-09-03T09:54:03;26.20;98.90
32698;DHT22;19087;51.062;3.754;2022-09-03T09:56:35;25.70;99.20
32698;DHT22;19087;51.062;3.754;2022-09-03T09:59:11;25.50;99.80
32698;DHT22;19087;51.062;3.754;2022-09-03T10:01:39;25.20;99.90
32698;DHT22;19087;51.062;3.754;2022-09-03T10:04:28;25.10;99.90
32698;DHT22;19087;51.062;3.754;2022-09-03T10:07:04;25.30;99.90
32698;DHT22;19087;51.062;3.754;2022-09-03T10:09:32;25.10;99.90
32698;DHT22;19087;51.062;3.754;2022-09-03T10:17:34;25.30;99.90
32698;DHT22;19087;51.062;3.754;2022-09-03T10:23:16;25.80;99.60
32698;DHT22;19087;51.062;3.754;2022-09-03T10:26:13;26.00;99.50
32698;DHT22;19087;51.062;3.754;2022-09-03T10:28:42;25.90;99.50
32698;DHT22;19087;51.062;3.754;2022-09-03T10:36:46;26.70;98.20
32698;DHT22;19087;51.062;3.754;2022-09-03T10:45:06;26.60;98.00
32698;DHT22;19087;51.062;3.754;2022-09-03T10:50:12;26.60;97.80
32698;DHT22;19087;51.062;3.754;2022-09-03T10:55:54;27.70;96.40
32698;DHT22;19087;51.062;3.754;2022-09-03T11:00:56;28.20;95.10
32698;DHT22;19087;51.062;3.754;2022-09-03T11:06:02;28.40;93.80
32698;DHT22;19087;51.062;3.754;2022-09-03T11:08:35;27.80;94.20
32698;DHT22;19087;51.062;3.754;2022-09-03T11:11:21;27.90;93.80
32698;DHT22;19087;51.062;3.754;2022-09-03T11:13:57;28.10;93.80
32698;DHT22;19087;51.062;3.754;2022-09-03T11:16:31;28.60;92.90
32698;DHT22;19087;51.062;3.754;2022-09-03T11:19:03;28.70;92.80
32698;DHT22;19087;51.062;3.754;2022-09-03T11:21:30;29.10;91.00
32698;DHT22;19087;51.062;3.754;2022-09-03T11:24:25;29.50;90.30
32698;DHT22;19087;51.062;3.754;2022-09-03T11:30:07;29.70;89.30
32698;DHT22;19087;51.062;3.754;2022-09-03T11:32:46;29.60;89.10
32698;DHT22;19087;51.062;3.754;2022-09-03T11:35:26;29.70;89.00
32698;DHT22;19087;51.062;3.754;2022-09-03T11:40:35;29.20;89.80
32698;DHT22;19087;51.062;3.754;2022-09-03T11:48:43;29.00;89.80
32698;DHT22;19087;51.062;3.754;2022-09-03T11:56:40;29.20;88.90
32698;DHT22;19087;51.062;3.754;2022-09-03T12:01:41;29.90;87.80
32698;DHT22;19087;51.062;3.754;2022-09-03T12:04:13;30.40;87.50
32698;DHT22;19087;51.062;3.754;2022-09-03T12:07:12;30.50;86.00
32698;DHT22;19087;51.062;3.754;2022-09-03T12:09:58;30.60;86.40
32698;DHT22;19087;51.062;3.754;2022-09-03T12:21:04;29.00;88.80
32698;DHT22;19087;51.062;3.754;2022-09-03T12:23:39;28.70;89.70
32698;DHT22;19087;51.062;3.754;2022-09-03T12:26:16;28.90;89.10
32698;DHT22;19087;51.062;3.754;2022-09-03T12:28:47;28.80;89.80
32698;DHT22;19087;51.062;3.754;2022-09-03T12:31:19;28.80;89.50
32698;DHT22;19087;51.062;3.754;2022-09-03T12:36:42;28.30;90.00
32698;DHT22;19087;51.062;3.754;2022-09-03T12:39:13;28.60;90.10
32698;DHT22;19087;51.062;3.754;2022-09-03T12:44:46;29.10;88.60
32698;DHT22;19087;51.062;3.754;2022-09-03T12:47:20;29.40;88.80
32698;DHT22;19087;51.062;3.754;2022-09-03T12:49:48;30.00;87.80
32698;DHT22;19087;51.062;3.754;2022-09-03T12:52:44;30.40;86.10
32698;DHT22;19087;51.062;3.754;2022-09-03T12:55:17;30.80;85.30
32698;DHT22;19087;51.062;3.754;2022-09-03T12:57:53;29.90;85.90
32698;DHT22;19087;51.062;3.754;2022-09-03T13:00:20;29.60;88.10
32698;DHT22;19087;51.062;3.754;2022-09-03T13:05:53;29.60;87.70
32698;DHT22;19087;51.062;3.754;2022-09-03T13:08:27;30.10;86.90
32698;DHT22;19087;51.062;3.754;2022-09-03T13:10:57;30.20;85.60
32698;DHT22;19087;51.062;3.754;2022-09-03T13:13:29;29.50;86.50
32698;DHT22;19087;51.062;3.754;2022-09-03T13:21:31;29.10;86.80
32698;DHT22;19087;51.062;3.754;2022-09-03T13:29:37;28.40;87.80
32698;DHT22;19087;51.062;3.754;2022-09-03T13:32:21;28.30;88.80
32698;DHT22;19087;51.062;3.754;2022-09-03T13:40:48;28.00;89.90
32698;DHT22;19087;51.062;3.754;2022-09-03T13:43:24;28.10;89.40
32698;DHT22;19087;51.062;3.754;2022-09-03T13:48:27;28.50;88.30
32698;DHT22;19087;51.062;3.754;2022-09-03T13:51:36;28.80;87.80
32698;DHT22;19087;51.062;3.754;2022-09-03T13:54:33;28.80;86.90
32698;DHT22;19087;51.062;3.754;2022-09-03T14:00:00;29.20;85.70
32698;DHT22;19087;51.062;3.754;2022-09-03T14:02:49;29.20;85.70
32698;DHT22;19087;51.062;3.754;2022-09-03T14:05:33;29.40;85.40
32698;DHT22;19087;51.062;3.754;2022-09-03T14:08:22;29.30;84.70
32698;DHT22;19087;51.062;3.754;2022-09-03T14:11:12;29.20;85.10
32698;DHT22;19087;51.062;3.754;2022-09-03T14:14:10;29.40;84.70
32698;DHT22;19087;51.062;3.754;2022-09-03T14:19:42;29.50;85.00
32698;DHT22;19087;51.062;3.754;2022-09-03T14:22:18;29.80;84.80
32698;DHT22;19087;51.062;3.754;2022-09-03T14:24:54;29.40;85.10
32698;DHT22;19087;51.062;3.754;2022-09-03T14:27:27;29.30;85.50
32698;DHT22;19087;51.062;3.754;2022-09-03T14:29:59;29.20;85.40
32698;DHT22;19087;51.062;3.754;2022-09-03T14:32:49;29.20;85.70
32698;DHT22;19087;51.062;3.754;2022-09-03T14:35:58;29.00;86.30
32698;DHT22;19087;51.062;3.754;2022-09-03T14:42:35;29.00;87.30
32698;DHT22;19087;51.062;3.754;2022-09-03T14:48:00;28.80;87.70
32698;DHT22;19087;51.062;3.754;2022-09-03T15:01:35;28.30;89.20
32698;DHT22;19087;51.062;3.754;2022-09-03T15:09:30;28.70;89.40
32698;DHT22;19087;51.062;3.754;2022-09-03T15:14:59;29.30;87.90
32698;DHT22;19087;51.062;3.754;2022-09-03T15:20:20;29.50;87.80
32698;DHT22;19087;51.062;3.754;2022-09-03T15:25:53;30.00;86.10
32698;DHT22;19087;51.062;3.754;2022-09-03T15:31:39;29.10;85.40
32698;DHT22;19087;51.062;3.754;2022-09-03T15:36:51;29.90;82.40
32698;DHT22;19087;51.062;3.754;2022-09-03T15:39:33;29.90;82.60
32698;DHT22;19087;51.062;3.754;2022-09-03T15:42:25;30.00;81.60
32698;DHT22;19087;51.062;3.754;2022-09-03T15:44:54;29.90;81.60
32698;DHT22;19087;51.062;3.754;2022-09-03T15:47:46;29.70;82.70
32698;DHT22;19087;51.062;3.754;2022-09-03T15:50:15;29.90;82.00
32698;DHT22;19087;51.062;3.754;2022-09-03T15:56:10;30.10;80.90
32698;DHT22;19087;51.062;3.754;2022-09-03T15:58:50;30.00;80.50
32698;DHT22;19087;51.062;3.754;2022-09-03T16:04:24;29.40;82.40
32698;DHT22;19087;51.062;3.754;2022-09-03T16:07:03;29.00;83.40
32698;DHT22;19087;51.062;3.754;2022-09-03T16:12:35;28.30;86.20
32698;DHT22;19087;51.062;3.754;2022-09-03T16:15:09;28.40;85.90
32698;DHT22;19087;51.062;3.754;2022-09-03T16:17:57;28.30;85.30
32698;DHT22;19087;51.062;3.754;2022-09-03T16:20:56;28.20;85.20
32698;DHT22;19087;51.062;3.754;2022-09-03T16:23:51;27.80;86.10
32698;DHT22;19087;51.062;3.754;2022-09-03T16:26:40;27.90;85.90
32698;DHT22;19087;51.062;3.754;2022-09-03T16:29:12;27.70;88.20
32698;DHT22;19087;51.062;3.754;2022-09-03T16:37:34;27.00;90.50
32698;DHT22;19087;51.062;3.754;2022-09-03T16:40:20;27.00;90.70
32698;DHT22;19087;51.062;3.754;2022-09-03T16:45:45;27.60;90.20
32698;DHT22;19087;51.062;3.754;2022-09-03T16:51:49;27.20;90.50
32698;DHT22;19087;51.062;3.754;2022-09-03T16:57:18;27.00;91.00
32698;DHT22;19087;51.062;3.754;2022-09-03T17:00:34;27.00;91.10
32698;DHT22;19087;51.062;3.754;2022-09-03T17:03:20;26.90;91.10
32698;DHT22;19087;51.062;3.754;2022-09-03T17:20:48;26.20;92.20
32698;DHT22;19087;51.062;3.754;2022-09-03T17:26:11;26.30;91.90
32698;DHT22;19087;51.062;3.754;2022-09-03T17:28:56;26.30;91.90
32698;DHT22;19087;51.062;3.754;2022-09-03T17:34:37;26.10;92.20
32698;DHT22;19087;51.062;3.754;2022-09-03T17:53:56;26.40;91.10
32698;DHT22;19087;51.062;3.754;2022-09-03T18:08:32;26.10;91.20
32698;DHT22;19087;51.062;3.754;2022-09-03T18:14:33;25.90;91.40
32698;DHT22;19087;51.062;3.754;2022-09-03T18:17:10;25.80;91.60
32698;DHT22;19087;51.062;3.754;2022-09-03T18:19:53;25.60;91.60
32698;DHT22;19087;51.062;3.754;2022-09-03T18:26:01;25.40;91.70
32698;DHT22;19087;51.062;3.754;2022-09-03T18:29:19;25.20;92.00
32698;DHT22;19087;51.062;3.754;2022-09-03T18:32:06;24.90;92.70
32698;DHT22;19087;51.062;3.754;2022-09-03T18:34:50;24.80;93.50
32698;DHT22;19087;51.062;3.754;2022-09-03T18:37:37;24.70;93.80
32698;DHT22;19087;51.062;3.754;2022-09-03T18:40:33;24.60;94.10
32698;DHT22;19087;51.062;3.754;2022-09-03T18:46:59;24.40;94.80
32698;DHT22;19087;51.062;3.754;2022-09-03T18:50:07;24.20;95.20
32698;DHT22;19087;51.062;3.754;2022-09-03T18:53:56;24.10;95.70
32698;DHT22;19087;51.062;3.754;2022-09-03T18:56:47;24.00;96.30
32698;DHT22;19087;51.062;3.754;2022-09-03T19:15:04;23.80;97.10
32698;DHT22;19087;51.062;3.754;2022-09-03T19:21:43;23.60;98.20
32698;DHT22;19087;51.062;3.754;2022-09-03T19:24:25;23.40;99.40
32698;DHT22;19087;51.062;3.754;2022-09-03T19:27:30;23.20;99.90
32698;DHT22;19087;51.062;3.754;2022-09-03T19:33:24;22.90;99.90
32698;DHT22;19087;51.062;3.754;2022-09-03T19:54:46;23.10;99.90
32698;DHT22;19087;51.062;3.754;2022-09-03T19:57:54;23.20;99.90
32698;DHT22;19087;51.062;3.754;2022-09-03T20:00:40;23.30;99.90
32698;DHT22;19087;51.062;3.754;2022-09-03T20:03:25;23.10;99.90
32698;DHT22;19087;51.062;3.754;2022-09-03T20:06:13;22.80;99.90
32698;DHT22;19087;51.062;3.754;2022-09-03T20:09:06;22.70;99.90
32698;DHT22;19087;51.062;3.754;2022-09-03T20:11:58;22.60;99.90
32698;DHT22;19087;51.062;3.754;2022-09-03T20:14:30;22.40;99.90
32698;DHT22;19087;51.062;3.754;2022-09-03T20:22:58;22.60;99.90
32698;DHT22;19087;51.062;3.754;2022-09-03T20:31:30;22.50;99.90
32698;DHT22;19087;51.062;3.754;2022-09-03T20:34:31;22.50;99.90
32698;DHT22;19087;51.062;3.754;2022-09-03T20:37:15;22.40;99.90
32698;DHT22;19087;51.062;3.754;2022-09-03T20:45:23;22.20;99.90
32698;DHT22;19087;51.062;3.754;2022-09-03T20:48:17;22.10;99.90
32698;DHT22;19087;51.062;3.754;2022-09-03T20:51:00;22.00;99.90
32698;DHT22;19087;51.062;3.754;2022-09-03T20:59:40;21.80;99.90
32698;DHT22;19087;51.062;3.754;2022-09-03T21:12:57;21.70;99.90
32698;DHT22;19087;51.062;3.754;2022-09-03T21:24:02;21.40;99.90
32698;DHT22;19087;51.062;3.754;2022-09-03T21:26:33;21.30;99.90
32698;DHT22;19087;51.062;3.754;2022-09-03T21:29:24;21.20;99.90
32698;DHT22;19087;51.062;3.754;2022-09-03T21:32:10;21.30;99.90
32698;DHT22;19087;51.062;3.754;2022-09-03T21:34:43;21.30;99.90
32698;DHT22;19087;51.062;3.754;2022-09-03T21:37:12;21.40;99.90
32698;DHT22;19087;51.062;3.754;2022-09-03T21:39:57;21.50;99.90
32698;DHT22;19087;51.062;3.754;2022-09-03T21:45:03;21.50;99.90
32698;DHT22;19087;51.062;3.754;2022-09-03T21:47:36;21.50;99.90
32698;DHT22;19087;51.062;3.754;2022-09-03T21:50:16;21.50;99.90
32698;DHT22;19087;51.062;3.754;2022-09-03T22:01:04;21.70;99.90
32698;DHT22;19087;51.062;3.754;2022-09-03T22:03:31;21.70;99.90
32698;DHT22;19087;51.062;3.754;2022-09-03T22:06:03;21.60;99.90
32698;DHT22;19087;51.062;3.754;2022-09-03T22:11:05;21.70;99.90
32698;DHT22;19087;51.062;3.754;2022-09-03T22:17:01;21.50;99.90
32698;DHT22;19087;51.062;3.754;2022-09-03T22:19:32;21.50;99.90
32698;DHT22;19087;51.062;3.754;2022-09-03T22:22:41;21.30;99.90
32698;DHT22;19087;51.062;3.754;2022-09-03T22:25:04;21.10;99.90
32698;DHT22;19087;51.062;3.754;2022-09-03T22:28:01;21.00;99.90
32698;DHT22;19087;51.062;3.754;2022-09-03T22:30:31;20.80;99.90
32698;DHT22;19087;51.062;3.754;2022-09-03T22:35:52;20.70;99.90
32698;DHT22;19087;51.062;3.754;2022-09-03T22:44:14;20.60;99.90
32698;DHT22;19087;51.062;3.754;2022-09-03T22:47:31;20.60;99.90
32698;DHT22;19087;51.062;3.754;2022-09-03T22:50:37;20.60;99.90
32698;DHT22;19087;51.062;3.754;2022-09-03T22:53:33;20.50;99.90
32698;DHT22;19087;51.062;3.754;2022-09-03T22:56:35;20.70;99.90